Latest Weather Observations for Loxton

IDS60801

Issued at 4:05 pm CST Wednesday 3 September 2014 (issued every 30 minutes, with the page automatically refreshed every 10 minutes)

About weather observations | Map of weather stations | Latest weather observations for SA | Other Formats
Station Details ID: 024024 Name: LOXTON RESEARCH CENTRE Lat: -34.44 Lon: 140.60 Height: 30.1 m
Data from the previous 72 hours. | See also: Recent months at Loxton
Date/Time
CST
Temp
°C
App
Temp
°C
Dew
Point
Rel
Hum
%
Delta-T
°C
Wind Press
QNH
hPa
Press
MSL
hPa
Rain
since 9 am
mm
Dir
 
Spd
km/h
Gust
km/h
Spd
kts
Gust
kts
03/04:00pm 14.4 11.2 3.0 46 5.1 WSW 9 13 5 7 1020.7 1020.7 0.0
03/03:30pm 14.4 12.1 2.7 45 5.2 WSW 4 17 2 9 1020.9 1020.9 0.0
03/03:00pm 14.8 11.6 3.3 46 5.2 WNW 9 13 5 7 1021.2 1021.2 0.0
03/02:30pm 14.6 10.8 1.7 41 5.6 WNW 11 19 6 10 1021.5 1021.5 0.0
03/02:00pm 15.0 12.1 2.4 42 5.6 W 7 17 4 9 1021.4 1021.4 0.0
03/01:30pm 15.0 11.6 2.0 41 5.7 NW 9 19 5 10 1021.8 1021.8 0.0
03/01:00pm 14.6 10.5 2.1 43 5.5 NNW 13 24 7 13 1022.3 1022.3 0.0
03/12:30pm 14.8 10.8 3.0 45 5.3 N 13 19 7 10 1022.8 1022.8 0.0
03/12:00pm 14.4 11.2 3.0 46 5.1 NNW 9 17 5 9 1023.6 1023.6 0.0
03/11:30am 13.6 9.7 3.3 49 4.6 N 13 20 7 11 1024.0 1024.0 0.0
03/11:00am 12.4 8.9 3.6 55 3.9 N 11 17 6 9 1024.0 1024.0 0.0
03/10:30am 11.3 8.8 4.6 63 3.0 NE 7 13 4 7 1024.4 1024.4 0.0
03/10:00am 10.8 8.1 5.8 71 2.3 NNE 9 13 5 7 1025.3 1025.3 0.0
03/09:30am 9.4 7.4 6.1 80 1.5 E 6 11 3 6 1025.9 1025.9 0.0
03/09:00am 8.4 5.8 6.0 85 1.1 E 9 15 5 8 1025.8 1025.8 0.0
03/08:30am 7.6 4.9 5.8 88 0.8 E 9 13 5 7 1025.7 1025.7 0.0
03/08:00am 5.6 3.1 4.9 95 0.3 ESE 7 11 4 6 1025.5 1025.5 0.0
03/07:30am 4.3 2.9 3.8 97 0.2 CALM 0 0 0 0 1025.9 1025.9 0.0
03/07:00am 2.3 0.6 1.8 96 0.2 CALM 0 0 0 0 1025.7 1025.7 0.0
03/06:30am 1.6 -0.2 1.3 98 0.1 CALM 0 0 0 0 1025.5 1025.5 0.0
03/06:00am 1.6 -0.2 1.3 98 0.1 CALM 0 0 0 0 1025.4 1025.4 0.0
03/05:30am 1.6 -0.2 1.1 96 0.2 CALM 0 0 0 0 1025.2 1025.2 0.0
03/05:00am 3.4 1.9 3.2 99 0.1 CALM 0 0 0 0 1025.3 1025.3 0.0
03/04:30am 3.8 1.2 3.3 97 0.2 SW 6 9 3 5 1025.1 1025.1 0.0
03/04:00am 4.0 1.5 3.5 97 0.2 SSE 6 7 3 4 1024.8 1024.8 0.0
03/03:30am 4.7 1.7 4.2 97 0.2 S 9 13 5 7 1024.6 1024.6 0.0
03/03:00am 4.9 1.5 4.2 95 0.3 S 11 15 6 8 1024.8 1024.8 0.0
03/02:30am 4.9 1.5 4.2 95 0.3 S 11 15 6 8 1024.9 1024.9 0.0
03/02:00am 5.5 2.6 4.6 94 0.4 S 9 13 5 7 1025.2 1025.2 0.0
03/01:30am 5.4 2.5 4.5 94 0.4 S 9 11 5 6 1025.5 1025.5 0.0
03/01:00am 5.6 2.3 4.7 94 0.4 SW 11 13 6 7 1025.9 1025.9 0.0
03/12:30am 6.1 3.2 4.7 91 0.6 SW 9 13 5 7 1026.0 1026.0 0.0
03/12:00am 7.1 3.6 5.3 88 0.8 SSW 13 19 7 10 1026.1 1026.1 0.0
 
Date/Time
CST
Temp
°C
App
Temp
°C
Dew
Point
Rel
Hum
%
Delta-T
°C
Wind Press
QNH
hPa
Press
MSL
hPa
Rain
since 9 am
mm
Dir
 
Spd
km/h
Gust
km/h
Spd
kts
Gust
kts
02/11:30pm 7.6 4.1 5.3 85 1.0 S 13 15 7 8 1025.7 1025.7 0.0
02/11:00pm 7.8 4.3 5.3 84 1.1 SSW 13 19 7 10 1025.8 1025.8 0.0
02/10:30pm 7.7 4.2 5.5 86 1.0 SSW 13 17 7 9 1026.1 1026.1 0.0
02/10:00pm 8.2 4.2 5.0 80 1.4 SSW 15 20 8 11 1026.0 1026.0 0.0
02/09:30pm 8.5 4.9 5.1 79 1.5 SW 13 15 7 8 1025.9 1025.9 0.0
02/09:00pm 9.0 5.4 5.0 76 1.8 SW 13 17 7 9 1025.7 1025.7 0.0
02/08:30pm 9.8 6.2 4.9 71 2.2 SSW 13 17 7 9 1025.5 1025.5 0.0
02/08:00pm 10.0 6.8 4.9 70 2.3 SSW 11 15 6 8 1025.3 1025.3 0.0
02/07:30pm 10.8 7.5 4.8 66 2.7 SSW 11 15 6 8 1025.2 1025.2 0.0
02/07:00pm 11.1 7.9 5.2 67 2.7 SW 11 13 6 7 1024.9 1024.9 0.0
02/06:30pm 12.1 7.7 4.9 61 3.3 SSW 17 24 9 13 1024.8 1024.8 0.0
02/06:00pm 12.7 9.0 4.3 56 3.8 SW 13 19 7 10 1024.4 1024.4 0.0
02/05:30pm 13.9 10.1 3.7 50 4.6 SW 13 17 7 9 1023.9 1023.9 0.0
02/05:00pm 14.8 10.5 3.3 46 5.2 SSW 15 20 8 11 1023.7 1023.7 0.0
02/04:30pm 16.0 10.1 1.7 38 6.3 SW 22 33 12 18 1023.2 1023.2 0.0
02/04:00pm 16.6 11.0 1.4 36 6.7 SSW 20 28 11 15 1023.0 1023.0 0.0
02/03:30pm 16.8 11.3 2.0 37 6.6 SSW 20 30 11 16 1022.8 1022.8 0.0
02/03:00pm 15.9 10.4 1.9 39 6.2 S 20 28 11 15 1022.8 1022.8 0.0
02/02:30pm 16.7 11.8 1.9 37 6.6 S 17 28 9 15 1022.6 1022.6 0.0
02/02:00pm 15.9 9.8 0.2 34 6.7 S 22 32 12 17 1022.6 1022.6 0.0
02/01:30pm 15.7 10.4 3.1 43 5.7 S 20 30 11 16 1022.7 1022.7 0.0
02/01:00pm 15.4 9.8 3.6 45 5.4 S 22 33 12 18 1022.9 1022.9 0.0
02/12:30pm 14.8 9.2 3.3 46 5.2 S 22 37 12 20 1022.9 1022.9 0.0
02/12:00pm 15.1 9.1 3.4 45 5.3 S 24 39 13 21 1023.2 1023.2 0.0
02/11:30am 14.3 8.6 4.8 53 4.4 S 24 35 13 19 1023.3 1023.3 0.0
02/11:00am 14.2 9.3 4.9 53 4.3 S 20 32 11 17 1023.6 1023.6 0.0
02/10:30am 13.1 7.9 5.4 59 3.6 SSW 22 32 12 17 1023.9 1023.9 0.0
02/10:00am 12.3 7.7 5.6 63 3.1 SSW 19 32 10 17 1024.0 1024.0 0.0
02/09:30am 11.7 7.6 6.4 70 2.5 SSW 17 20 9 11 1024.0 1024.0 0.0
02/09:00am 10.5 5.9 6.4 76 1.9 SW 20 26 11 14 1023.8 1023.8 3.0
02/08:30am 9.6 5.9 6.1 79 1.6 SW 15 22 8 12 1023.4 1023.4 3.0
02/08:00am 8.1 3.8 5.4 83 1.2 WSW 17 22 9 12 1023.1 1023.1 3.0
02/07:30am 7.4 3.4 5.1 85 1.0 WSW 15 22 8 12 1022.6 1022.6 3.0
02/07:00am 6.7 2.7 4.9 88 0.8 SW 15 22 8 12 1022.0 1022.0 3.0
02/06:30am 6.4 2.4 4.8 89 0.7 WSW 15 24 8 13 1021.6 1021.6 3.0
02/06:00am 6.6 2.3 5.2 91 0.6 WSW 17 24 9 13 1021.1 1021.1 3.0
02/05:30am 6.9 2.6 5.3 89 0.7 W 17 22 9 12 1020.5 1020.5 3.0
02/05:00am 7.0 3.1 5.4 89 0.7 W 15 20 8 11 1020.1 1020.1 3.0
02/04:30am 7.2 3.7 5.4 88 0.8 W 13 17 7 9 1019.6 1019.6 3.0
02/04:00am 7.1 3.7 5.8 91 0.6 W 13 19 7 10 1019.5 1019.5 3.0
02/03:30am 7.2 3.4 5.6 89 0.7 WSW 15 22 8 12 1019.2 1019.2 3.0
02/03:00am 7.7 3.5 5.5 86 1.0 WSW 17 22 9 12 1018.8 1018.8 3.0
02/02:30am 8.2 3.7 6.0 86 1.0 WSW 19 24 10 13 1019.0 1019.0 3.0
02/02:00am 8.0 4.2 6.0 87 0.9 WSW 15 22 8 12 1018.9 1018.9 3.0
02/01:30am 8.0 3.9 6.0 87 0.9 W 17 24 9 13 1018.7 1018.7 3.0
02/01:00am 7.9 3.7 5.9 87 0.9 WSW 17 24 9 13 1018.6 1018.6 3.0
02/12:30am 7.9 4.1 5.9 87 0.9 W 15 20 8 11 1018.5 1018.5 3.0
02/12:00am 8.4 4.3 6.0 85 1.1 WSW 17 22 9 12 1018.3 1018.3 3.0
 
Date/Time
CST
Temp
°C
App
Temp
°C
Dew
Point
Rel
Hum
%
Delta-T
°C
Wind Press
QNH
hPa
Press
MSL
hPa
Rain
since 9 am
mm
Dir
 
Spd
km/h
Gust
km/h
Spd
kts
Gust
kts
01/11:30pm 8.6 5.2 6.0 84 1.2 WSW 13 20 7 11 1018.2 1018.2 3.0
01/11:00pm 8.8 5.4 5.9 82 1.3 W 13 19 7 10 1017.9 1017.9 3.0
01/10:30pm 8.6 5.5 5.7 82 1.3 W 11 19 6 10 1017.8 1017.8 3.0
01/10:00pm 8.4 5.7 5.7 83 1.2 W 9 17 5 9 1017.6 1017.6 3.0
01/09:30pm 9.1 6.0 5.6 79 1.6 WSW 11 15 6 8 1017.3 1017.3 3.0
01/09:00pm 9.0 5.5 5.5 79 1.6 SW 13 15 7 8 1017.0 1017.0 3.0
01/08:30pm 9.3 5.5 5.6 78 1.7 SW 15 20 8 11 1016.8 1016.8 3.0
01/08:00pm 10.0 6.6 5.9 75 1.9 SW 13 19 7 10 1016.5 1016.5 3.0
01/07:30pm 10.4 7.5 6.6 77 1.8 SW 11 15 6 8 1016.1 1016.1 3.0
01/07:00pm 11.3 8.0 6.4 72 2.3 SW 13 19 7 10 1015.5 1015.5 3.0
01/06:30pm 12.0 8.7 6.3 68 2.7 SW 13 17 7 9 1015.0 1015.0 3.0
01/06:00pm 12.5 8.9 6.6 67 2.8 SW 15 20 8 11 1014.7 1014.7 3.0
01/05:30pm 14.0 9.9 6.3 60 3.7 SW 17 22 9 12 1014.2 1014.1 3.0
01/05:00pm 14.7 9.9 5.7 55 4.3 SW 20 28 11 15 1013.6 1013.5 3.0
01/04:30pm 15.2 11.5 8.0 62 3.6 SW 17 28 9 15 1013.4 1013.3 3.0
01/04:00pm 15.4 10.5 8.5 63 3.5 W 24 26 13 14 1012.9 1012.8 3.0
01/03:30pm 13.9 11.3 9.4 74 2.3 W 13 20 7 11 1012.9 1012.8 3.0
01/03:00pm 13.0 9.2 9.0 77 2.0 WSW 19 28 10 15 1013.0 1012.9 2.8
01/02:30pm 14.1 12.3 10.7 80 1.8 W 11 19 6 10 1012.8 1012.7 2.8
01/02:00pm 13.4 11.2 10.7 84 1.4 W 13 19 7 10 1012.8 1012.7 2.8
01/01:30pm 12.5 10.7 11.0 90 0.8 W 11 15 6 8 1013.0 1012.9 2.8
01/01:00pm 12.2 10.0 10.9 92 0.7 W 13 20 7 11 1013.3 1013.2 2.4
01/12:30pm 11.8 10.0 10.8 94 0.5 W 11 15 6 8 1013.7 1013.6 2.0
01/12:00pm 11.4 7.8 10.0 91 0.7 WSW 19 32 10 17 1013.8 1013.7 1.6
01/11:30am 12.9 10.9 11.4 91 0.8 W 13 19 7 10 1013.9 1013.8 0.4
01/11:00am 13.2 10.7 10.9 86 1.2 W 15 20 8 11 1013.8 1013.7 0.2
01/10:30am 12.9 11.1 10.8 87 1.1 WNW 11 15 6 8 1013.8 1013.7 0.2
01/10:00am 12.5 11.5 11.0 90 0.8 WNW 7 9 4 5 1013.6 1013.5 0.2
01/09:30am 12.1 11.0 10.8 92 0.7 WNW 7 9 4 5 1013.3 1013.2 0.2
01/09:00am 11.8 10.7 10.8 94 0.5 NNW 7 11 4 6 1013.7 1013.7 2.8
01/08:30am 11.7 10.2 10.7 94 0.5 WNW 9 11 5 6 1014.0 1014.0 2.6
01/08:00am 11.7 10.5 10.3 91 0.7 WNW 7 11 4 6 1013.3 1013.3 1.8
01/07:30am 11.8 10.3 10.4 91 0.7 SW 9 13 5 7 1012.6 1012.7 1.2
01/07:00am 11.9 9.7 10.7 92 0.6 SSW 13 20 7 11 1012.4 1012.5 1.0
01/06:30am 12.3 10.6 11.2 93 0.6 S 11 15 6 8 1011.8 1011.9 0.8
01/06:00am 12.5 10.7 10.8 89 0.9 SW 11 13 6 7 1011.7 1011.8 0.2
01/05:30am 13.0 11.5 10.5 85 1.3 SW 9 15 5 8 1011.2 1011.3 0.0
01/05:00am 13.8 11.9 8.9 72 2.5 WSW 9 13 5 7 1011.4 1011.5 0.0
01/04:30am 14.1 12.4 8.3 68 2.9 W 7 9 4 5 1011.1 1011.2 0.0
01/04:00am 14.1 12.5 8.1 67 3.0 SW 6 11 3 6 1010.5 1010.6 0.0
01/03:30am 14.6 12.2 7.1 60 3.7 SW 9 13 5 7 1010.4 1010.5 0.0
01/03:00am 15.2 11.9 6.6 56 4.2 WSW 13 20 7 11 1011.0 1011.1 0.0
01/02:30am 15.8 12.7 5.6 50 4.9 SW 11 17 6 9 1010.7 1010.8 0.0
01/02:00am 17.2 11.4 0.1 31 7.4 WSW 20 32 11 17 1010.7 1010.8 0.0
01/01:30am 18.2 13.4 -2.2 25 8.5 W 13 22 7 12 1010.5 1010.6 0.0
01/01:00am 19.9 14.4 -2.4 22 9.4 N 17 24 9 13 1009.8 1009.9 0.0
01/12:30am 19.8 14.6 -2.6 22 9.4 N 15 26 8 14 1009.4 1009.5 0.0
01/12:00am 19.2 14.8 -2.2 23 9.0 N 11 17 6 9 1009.4 1009.5 0.0
 
Date/Time
CST
Temp
°C
App
Temp
°C
Dew
Point
Rel
Hum
%
Delta-T
°C
Wind Press
QNH
hPa
Press
MSL
hPa
Rain
since 9 am
mm
Dir
 
Spd
km/h
Gust
km/h
Spd
kts
Gust
kts
31/11:30pm 18.8 14.4 -2.2 24 8.8 N 11 13 6 7 1009.8 1009.9 0.0
31/11:00pm 19.2 14.8 -2.2 23 9.0 N 11 19 6 10 1009.8 1009.9 0.0
31/10:30pm 18.8 14.5 -1.4 25 8.6 N 11 15 6 8 1010.3 1010.4 0.0
31/10:00pm 18.6 14.3 -1.8 25 8.6 NNE 11 15 6 8 1010.5 1010.6 0.0
31/09:30pm 19.9 15.5 -2.4 22 9.4 N 11 15 6 8 1011.3 1011.4 0.0
31/09:00pm 18.1 14.4 -0.1 29 7.9 N 9 11 5 6 1011.5 1011.6 0.0
31/08:30pm 17.6 14.4 0.8 32 7.4 N 7 9 4 5 1011.7 1011.8 0.0
31/08:00pm 18.2 14.4 -1.0 27 8.2 NNE 9 11 5 6 1011.7 1011.8 0.0
31/07:30pm 18.6 15.2 -0.6 27 8.3 N 7 11 4 6 1011.6 1011.7 0.0
31/07:00pm 19.2 15.4 -0.6 26 8.6 N 9 11 5 6 1011.2 1011.3 0.0
31/06:30pm 19.6 15.9 -0.2 26 8.7 NNE 9 13 5 7 1011.1 1011.2 0.0
31/06:00pm 20.9 17.6 0.1 25 9.3 N 7 9 4 5 1011.5 1011.6 0.0
31/05:30pm 22.7 18.6 -3.1 17 11.0 N 9 15 5 8 1011.4 1011.5 0.0
31/05:00pm 24.1 18.8 -3.9 15 11.9 NNW 15 22 8 12 1011.9 1012.0 0.0
31/04:30pm 24.1 20.1 -2.4 17 11.6 NNW 9 13 5 7 1011.8 1011.9 0.0

Other Formats:

Comma delimited format used in spreadsheet applications
http://www.bom.gov.au/fwo/IDS60801/IDS60801.94682.axf

JavaScript Object Notation format (JSON) in row-major order
http://www.bom.gov.au/fwo/IDS60801/IDS60801.94682.json